createdAt,value
2017-09-22T00:00:05.089Z,0.00
2017-09-22T00:01:05.514Z,0.00
2017-09-22T00:02:05.946Z,0.00
2017-09-22T00:03:06.370Z,0.00
2017-09-22T00:04:27.967Z,0.00
2017-09-22T00:05:07.235Z,0.00
2017-09-22T00:06:07.663Z,0.00
2017-09-22T00:07:08.111Z,0.00
2017-09-22T00:08:08.528Z,0.00
2017-09-22T00:09:08.956Z,0.00
2017-09-22T00:10:30.549Z,0.00
2017-09-22T00:11:09.819Z,0.00
2017-09-22T00:12:10.252Z,0.00
2017-09-22T00:13:10.724Z,0.00
2017-09-22T00:14:11.117Z,0.00
2017-09-22T00:15:11.544Z,0.00
2017-09-22T00:16:33.144Z,0.00
2017-09-22T00:17:12.404Z,0.00
2017-09-22T00:18:12.834Z,0.00
2017-09-22T00:19:13.265Z,0.00
2017-09-22T00:20:13.691Z,0.00
2017-09-22T00:21:14.127Z,0.00
2017-09-22T00:22:35.718Z,0.00
2017-09-22T00:23:14.995Z,0.00
2017-09-22T00:24:15.421Z,0.00
2017-09-22T00:25:15.846Z,0.00
2017-09-22T00:26:16.283Z,0.00
2017-09-22T00:27:16.710Z,0.00
2017-09-22T00:28:38.310Z,0.00
2017-09-22T00:29:17.567Z,0.00
2017-09-22T00:30:18.011Z,0.00
2017-09-22T00:31:18.440Z,0.00
2017-09-22T00:32:18.859Z,0.00
2017-09-22T00:33:19.292Z,0.00
2017-09-22T00:34:40.885Z,0.00
2017-09-22T00:35:20.150Z,0.00
2017-09-22T00:36:20.583Z,0.00
2017-09-22T00:37:21.013Z,0.00
2017-09-22T00:38:21.449Z,0.00
2017-09-22T00:39:21.880Z,0.00
2017-09-22T00:40:43.460Z,0.00
2017-09-22T00:41:22.735Z,0.00
2017-09-22T00:42:23.167Z,0.00
2017-09-22T00:43:23.594Z,0.00
2017-09-22T00:44:24.027Z,0.00
2017-09-22T00:45:24.452Z,0.00
2017-09-22T00:46:46.049Z,0.00
2017-09-22T00:47:25.323Z,0.00
2017-09-22T00:48:25.747Z,0.00
2017-09-22T00:49:26.177Z,0.00
2017-09-22T00:50:26.608Z,0.00
2017-09-22T00:51:27.042Z,0.00
2017-09-22T00:52:48.621Z,0.00
2017-09-22T00:53:27.902Z,0.00
2017-09-22T00:54:28.329Z,0.00
2017-09-22T00:55:28.757Z,0.00
2017-09-22T00:56:29.193Z,0.00
2017-09-22T00:57:29.615Z,0.00
2017-09-22T00:58:51.209Z,0.00
2017-09-22T00:59:30.481Z,0.00
2017-09-22T01:00:30.909Z,0.00
2017-09-22T01:01:31.340Z,0.00
2017-09-22T01:02:31.771Z,0.00
2017-09-22T01:03:32.201Z,0.00
2017-09-22T01:04:53.787Z,0.00
2017-09-22T01:05:33.054Z,0.00
2017-09-22T01:06:33.488Z,0.00
2017-09-22T01:07:33.930Z,0.00
2017-09-22T01:08:34.349Z,0.00
2017-09-22T01:09:34.780Z,0.00
2017-09-22T01:10:56.362Z,0.00
2017-09-22T01:11:35.640Z,0.00
2017-09-22T01:12:36.068Z,0.00
2017-09-22T01:13:36.498Z,0.00
2017-09-22T01:14:36.926Z,0.00
2017-09-22T01:15:37.363Z,0.00
2017-09-22T01:16:58.942Z,0.00
2017-09-22T01:17:38.215Z,0.00
2017-09-22T01:18:38.648Z,0.00
2017-09-22T01:19:39.080Z,0.00
2017-09-22T01:20:39.500Z,0.00
2017-09-22T01:21:39.940Z,0.00
2017-09-22T01:23:01.522Z,0.00
2017-09-22T01:23:40.788Z,0.00
2017-09-22T01:24:41.225Z,0.00
2017-09-22T01:25:41.654Z,0.00
2017-09-22T01:26:42.082Z,0.00
2017-09-22T01:27:42.510Z,0.00
2017-09-22T01:29:04.100Z,0.00
2017-09-22T01:29:43.370Z,0.00
2017-09-22T01:30:43.797Z,0.00
2017-09-22T01:31:44.234Z,0.00
2017-09-22T01:32:44.655Z,0.00
2017-09-22T01:33:45.107Z,0.00
2017-09-22T01:35:06.687Z,0.00
2017-09-22T01:35:45.953Z,0.00
2017-09-22T01:36:46.385Z,0.00
2017-09-22T01:37:46.806Z,0.00
2017-09-22T01:38:47.245Z,0.00
2017-09-22T01:39:47.671Z,0.00
2017-09-22T01:41:09.261Z,0.00
2017-09-22T01:41:48.528Z,0.00
2017-09-22T01:42:48.969Z,0.00
2017-09-22T01:43:49.393Z,0.00
2017-09-22T01:44:49.820Z,0.00
2017-09-22T01:45:50.245Z,0.00
2017-09-22T01:47:11.845Z,0.00
2017-09-22T01:47:51.108Z,0.00
2017-09-22T01:48:51.535Z,0.00
2017-09-22T01:49:51.970Z,0.00
2017-09-22T01:50:52.399Z,0.00
2017-09-22T01:51:52.828Z,0.00
2017-09-22T01:53:14.426Z,0.00
2017-09-22T01:53:53.694Z,0.00
2017-09-22T01:54:54.114Z,0.00
2017-09-22T01:55:54.553Z,0.00
2017-09-22T01:56:54.981Z,0.00
2017-09-22T01:57:55.413Z,0.00
2017-09-22T01:59:17.005Z,0.00
2017-09-22T01:59:56.266Z,0.00
2017-09-22T02:00:56.699Z,0.00
2017-09-22T02:01:57.126Z,0.00
2017-09-22T02:02:57.572Z,0.00
2017-09-22T02:03:57.986Z,0.00
2017-09-22T02:05:19.578Z,0.00
2017-09-22T02:05:58.847Z,0.00
2017-09-22T02:06:59.280Z,0.00
2017-09-22T02:07:59.716Z,0.00
2017-09-22T02:09:00.138Z,0.00
2017-09-22T02:10:00.565Z,0.00
2017-09-22T02:11:22.160Z,0.00
2017-09-22T02:12:01.424Z,0.00
2017-09-22T02:13:01.855Z,0.00
2017-09-22T02:14:02.288Z,0.00
2017-09-22T02:15:02.736Z,0.00
2017-09-22T02:16:03.146Z,0.00
2017-09-22T02:17:24.740Z,0.00
2017-09-22T02:18:04.022Z,0.00
2017-09-22T02:19:04.439Z,0.00
2017-09-22T02:20:04.870Z,0.00
2017-09-22T02:21:05.303Z,0.00
2017-09-22T02:22:05.732Z,0.00
2017-09-22T02:23:27.324Z,0.00
2017-09-22T02:24:06.594Z,0.00
2017-09-22T02:25:07.023Z,0.00
2017-09-22T02:26:07.452Z,0.00
2017-09-22T02:27:07.882Z,0.00
2017-09-22T02:28:08.309Z,0.00
2017-09-22T02:29:29.900Z,0.00
2017-09-22T02:30:09.173Z,0.00
2017-09-22T02:31:09.711Z,0.00
2017-09-22T02:32:10.032Z,0.00
2017-09-22T02:33:10.471Z,0.00
2017-09-22T02:34:10.913Z,0.00
2017-09-22T02:35:32.487Z,0.00
2017-09-22T02:36:11.759Z,0.00
2017-09-22T02:37:12.190Z,0.00
2017-09-22T02:38:12.618Z,0.00
2017-09-22T02:39:13.048Z,0.00
2017-09-22T02:40:13.476Z,0.00
2017-09-22T02:41:35.067Z,0.00
2017-09-22T02:42:14.342Z,0.00
2017-09-22T02:43:14.773Z,0.00
2017-09-22T02:44:15.206Z,0.00
2017-09-22T02:45:15.631Z,0.00
2017-09-22T02:46:16.062Z,0.00
2017-09-22T02:47:37.658Z,0.00
2017-09-22T02:48:16.924Z,0.00
2017-09-22T02:49:17.358Z,0.00
2017-09-22T02:50:17.785Z,0.00
2017-09-22T02:51:18.215Z,0.00
2017-09-22T02:52:18.644Z,0.00
2017-09-22T02:53:40.236Z,0.00
2017-09-22T02:54:19.506Z,0.00
2017-09-22T02:55:19.948Z,0.00
2017-09-22T02:56:20.367Z,0.00
2017-09-22T02:57:20.796Z,0.00
2017-09-22T02:58:21.229Z,0.00
2017-09-22T02:59:42.818Z,0.00
2017-09-22T03:00:22.085Z,0.00
2017-09-22T03:01:22.524Z,0.00
2017-09-22T03:02:22.946Z,0.00
2017-09-22T03:03:23.381Z,0.00
2017-09-22T03:04:23.809Z,0.00
2017-09-22T03:05:45.400Z,0.00
2017-09-22T03:06:24.671Z,0.00
2017-09-22T03:07:25.101Z,0.00
2017-09-22T03:08:25.528Z,0.00
2017-09-22T03:09:25.963Z,0.00
2017-09-22T03:10:26.387Z,0.00
2017-09-22T03:11:47.983Z,0.00
2017-09-22T03:12:27.254Z,0.00
2017-09-22T03:13:27.685Z,0.00
2017-09-22T03:14:28.115Z,0.00
2017-09-22T03:15:28.545Z,0.00
2017-09-22T03:16:28.970Z,0.00
2017-09-22T03:17:50.562Z,0.00
2017-09-22T03:18:29.836Z,0.00
2017-09-22T03:19:30.268Z,0.00
2017-09-22T03:20:30.696Z,0.00
2017-09-22T03:21:31.122Z,0.00
2017-09-22T03:22:31.560Z,0.00
2017-09-22T03:23:53.156Z,0.00
2017-09-22T03:24:32.422Z,0.00
2017-09-22T03:25:32.846Z,0.00
2017-09-22T03:26:33.304Z,0.00
2017-09-22T03:27:33.709Z,0.00
2017-09-22T03:28:34.141Z,0.00
2017-09-22T03:29:55.734Z,0.00
2017-09-22T03:30:35.000Z,0.00
2017-09-22T03:31:35.432Z,0.00
2017-09-22T03:32:35.871Z,0.00
2017-09-22T03:33:36.307Z,0.00
2017-09-22T03:34:36.731Z,0.00
2017-09-22T03:35:58.317Z,0.00
2017-09-22T03:36:37.584Z,0.00
2017-09-22T03:37:38.026Z,0.00
2017-09-22T03:38:38.449Z,0.00
2017-09-22T03:39:38.875Z,0.00
2017-09-22T03:40:39.317Z,0.00
2017-09-22T03:42:00.894Z,0.00
2017-09-22T03:42:40.164Z,0.00
2017-09-22T03:43:40.600Z,0.00
2017-09-22T03:44:41.028Z,0.00
2017-09-22T03:45:41.459Z,0.00
2017-09-22T03:46:41.889Z,0.00
2017-09-22T03:48:03.482Z,0.00
2017-09-22T03:48:42.754Z,0.00
2017-09-22T03:49:43.186Z,0.00
2017-09-22T03:50:43.609Z,0.00
2017-09-22T03:51:44.049Z,0.00
2017-09-22T03:52:44.482Z,0.00
2017-09-22T03:54:06.062Z,0.00
2017-09-22T03:54:45.346Z,0.00
2017-09-22T03:55:45.766Z,0.00
2017-09-22T03:56:46.201Z,0.00
2017-09-22T03:57:46.631Z,0.00
2017-09-22T03:58:47.057Z,0.00
2017-09-22T04:00:08.644Z,0.00
2017-09-22T04:00:47.920Z,0.00
2017-09-22T04:01:48.354Z,0.00
2017-09-22T04:02:48.781Z,0.00
2017-09-22T04:03:49.209Z,0.00
2017-09-22T04:04:49.641Z,0.00
2017-09-22T04:06:11.229Z,0.00
2017-09-22T04:06:50.497Z,0.00
2017-09-22T04:07:50.931Z,0.00
2017-09-22T04:08:51.355Z,0.00
2017-09-22T04:09:51.796Z,0.00
2017-09-22T04:10:52.218Z,0.00
2017-09-22T04:12:13.814Z,0.00
2017-09-22T04:12:53.083Z,0.00
2017-09-22T04:13:53.530Z,0.00
2017-09-22T04:14:53.945Z,0.00
2017-09-22T04:15:54.390Z,0.00
2017-09-22T04:16:54.811Z,0.00
2017-09-22T04:18:16.411Z,0.00
2017-09-22T04:18:55.664Z,0.00
2017-09-22T04:19:56.105Z,0.00
2017-09-22T04:20:56.558Z,0.00
2017-09-22T04:21:56.959Z,4.00
2017-09-22T04:22:57.401Z,4.00
2017-09-22T04:24:18.978Z,4.00
2017-09-22T04:24:58.253Z,0.00
2017-09-22T04:25:58.679Z,0.00
2017-09-22T04:26:59.113Z,4.00
2017-09-22T04:27:59.540Z,4.00
2017-09-22T04:28:59.973Z,4.00
2017-09-22T04:30:21.570Z,4.00
2017-09-22T04:31:00.832Z,8.00
2017-09-22T04:32:01.262Z,8.00
2017-09-22T04:33:01.691Z,8.00
2017-09-22T04:34:02.127Z,12.00
2017-09-22T04:35:02.553Z,12.00
2017-09-22T04:36:24.146Z,12.00
2017-09-22T04:37:03.417Z,12.00
2017-09-22T04:38:03.845Z,16.00
2017-09-22T04:39:04.273Z,20.00
2017-09-22T04:40:04.715Z,20.00
2017-09-22T04:41:05.139Z,24.00
2017-09-22T04:42:26.726Z,28.00
2017-09-22T04:43:06.038Z,28.00
2017-09-22T04:44:06.431Z,32.00
2017-09-22T04:45:06.861Z,36.00
2017-09-22T04:46:07.290Z,44.00
2017-09-22T04:47:07.718Z,52.00
2017-09-22T04:48:29.321Z,56.00
2017-09-22T04:49:08.582Z,64.00
2017-09-22T04:50:09.053Z,72.00
2017-09-22T04:51:09.440Z,80.00
2017-09-22T04:52:09.869Z,92.00
2017-09-22T04:53:10.301Z,100.00
2017-09-22T04:54:31.891Z,108.00
2017-09-22T04:55:11.165Z,116.00
2017-09-22T04:56:11.591Z,124.00
2017-09-22T04:57:12.028Z,136.00
2017-09-22T04:58:12.460Z,148.00
2017-09-22T04:59:12.879Z,160.00
2017-09-22T05:00:34.473Z,176.00
2017-09-22T05:01:13.741Z,188.00
2017-09-22T05:02:14.181Z,204.00
2017-09-22T05:03:14.606Z,216.00
2017-09-22T05:04:15.032Z,228.00
2017-09-22T05:05:15.463Z,248.00
2017-09-22T05:06:37.059Z,264.00
2017-09-22T05:07:16.328Z,280.00
2017-09-22T05:08:16.761Z,296.00
2017-09-22T05:09:17.184Z,312.00
2017-09-22T05:10:17.619Z,324.00
2017-09-22T05:11:18.055Z,332.00
2017-09-22T05:12:39.636Z,352.00
2017-09-22T05:13:18.912Z,372.00
2017-09-22T05:14:19.345Z,404.00
2017-09-22T05:15:19.774Z,432.00
2017-09-22T05:16:20.198Z,468.00
2017-09-22T05:17:20.640Z,500.00
2017-09-22T05:18:42.221Z,532.00
2017-09-22T05:19:21.491Z,556.00
2017-09-22T05:20:21.918Z,580.00
2017-09-22T05:21:22.349Z,608.00
2017-09-22T05:22:22.782Z,640.00
2017-09-22T05:23:23.221Z,688.00
2017-09-22T05:24:44.844Z,756.00
2017-09-22T05:25:24.078Z,800.00
2017-09-22T05:26:24.505Z,844.00
2017-09-22T05:27:24.932Z,896.00
2017-09-22T05:28:25.360Z,944.00
2017-09-22T05:29:25.793Z,992.00
2017-09-22T05:30:47.386Z,1064.00
2017-09-22T05:31:26.654Z,1120.00
2017-09-22T05:32:27.081Z,1176.00
2017-09-22T05:33:27.520Z,1236.00
2017-09-22T05:34:27.943Z,1304.00
2017-09-22T05:35:28.377Z,1364.00
2017-09-22T05:36:49.979Z,1436.00
2017-09-22T05:37:29.241Z,1476.00
2017-09-22T05:38:29.668Z,1516.00
2017-09-22T05:39:30.100Z,1540.00
2017-09-22T05:40:30.529Z,1592.00
2017-09-22T05:41:30.962Z,1632.00
2017-09-22T05:42:52.557Z,1640.00
2017-09-22T05:43:31.822Z,1636.00
2017-09-22T05:44:32.253Z,1644.00
2017-09-22T05:45:32.683Z,1668.00
2017-09-22T05:46:33.180Z,1708.00
2017-09-22T05:47:33.545Z,1764.00
2017-09-22T05:48:55.143Z,1824.00
2017-09-22T05:49:34.404Z,1892.00
2017-09-22T05:50:34.836Z,1932.00
2017-09-22T05:51:35.287Z,1960.00
2017-09-22T05:52:35.696Z,1992.00
2017-09-22T05:53:36.129Z,2024.00
2017-09-22T05:54:57.718Z,2048.00
2017-09-22T05:55:36.986Z,2092.00
2017-09-22T05:56:37.415Z,2144.00
2017-09-22T05:57:37.850Z,2188.00
2017-09-22T05:58:38.276Z,2232.00
2017-09-22T05:59:38.706Z,2272.00
2017-09-22T06:01:00.301Z,2312.00
2017-09-22T06:01:39.575Z,2344.00
2017-09-22T06:02:40.000Z,2376.00
2017-09-22T06:03:40.438Z,2412.00
2017-09-22T06:04:40.888Z,2444.00
2017-09-22T06:05:41.291Z,2476.00
2017-09-22T06:07:02.884Z,2512.00
2017-09-22T06:07:42.151Z,2560.00
2017-09-22T06:08:42.587Z,2596.00
2017-09-22T06:09:43.019Z,2628.00
2017-09-22T06:10:43.449Z,2660.00
2017-09-22T06:11:43.873Z,2700.00
2017-09-22T06:13:05.472Z,2724.00
2017-09-22T06:13:44.740Z,2748.00
2017-09-22T06:14:45.171Z,2768.00
2017-09-22T06:15:45.636Z,2784.00
2017-09-22T06:16:46.027Z,2768.00
2017-09-22T06:17:46.457Z,2764.00
2017-09-22T06:19:08.056Z,2764.00
2017-09-22T06:19:47.332Z,2768.00
2017-09-22T06:20:47.751Z,2764.00
2017-09-22T06:21:48.181Z,2780.00
2017-09-22T06:22:48.609Z,2816.00
2017-09-22T06:23:49.039Z,2852.00
2017-09-22T06:25:10.631Z,2860.00
2017-09-22T06:25:49.906Z,2876.00
2017-09-22T06:26:50.335Z,2884.00
2017-09-22T06:27:50.762Z,2920.00
2017-09-22T06:28:51.191Z,2948.00
2017-09-22T06:29:51.625Z,2952.00
2017-09-22T06:31:13.211Z,2972.00
2017-09-22T06:31:52.481Z,3016.00
2017-09-22T06:32:52.915Z,3028.00
2017-09-22T06:33:53.347Z,3044.00
2017-09-22T06:34:53.779Z,3096.00
2017-09-22T06:35:54.220Z,3124.00
2017-09-22T06:37:15.796Z,3172.00
2017-09-22T06:37:55.066Z,3188.00
2017-09-22T06:38:55.496Z,3204.00
2017-09-22T06:39:55.924Z,3272.00
2017-09-22T06:40:56.368Z,3344.00
2017-09-22T06:41:56.808Z,3276.00
2017-09-22T06:43:18.382Z,3444.00
2017-09-22T06:43:57.652Z,3848.00
2017-09-22T06:44:58.077Z,4196.00
2017-09-22T06:45:58.509Z,4632.00
2017-09-22T06:46:58.943Z,4908.00
2017-09-22T06:47:59.374Z,5280.00
2017-09-22T06:49:20.962Z,5768.00
2017-09-22T06:50:00.232Z,6312.00
2017-09-22T06:51:00.660Z,6732.00
2017-09-22T06:52:01.100Z,6800.00
2017-09-22T06:53:01.532Z,6888.00
2017-09-22T06:54:01.998Z,7008.00
2017-09-22T06:55:23.553Z,6968.00
2017-09-22T06:56:02.823Z,7120.00
2017-09-22T06:57:03.251Z,7372.00
2017-09-22T06:58:03.683Z,7704.00
2017-09-22T06:59:04.117Z,7492.00
2017-09-22T07:00:04.552Z,7172.00
2017-09-22T07:01:26.143Z,6812.00
2017-09-22T07:02:05.413Z,6492.00
2017-09-22T07:03:05.863Z,6048.00
2017-09-22T07:04:06.281Z,5708.00
2017-09-22T07:05:06.715Z,4840.00
2017-09-22T07:06:07.142Z,4484.00
2017-09-22T07:07:28.743Z,4232.00
2017-09-22T07:08:08.011Z,4512.00
2017-09-22T07:09:08.449Z,4524.00
2017-09-22T07:10:08.896Z,4596.00
2017-09-22T07:11:09.308Z,4664.00
2017-09-22T07:12:09.740Z,4740.00
2017-09-22T07:13:31.336Z,4788.00
2017-09-22T07:14:10.611Z,4844.00
2017-09-22T07:15:11.058Z,4896.00
2017-09-22T07:16:11.472Z,4976.00
2017-09-22T07:17:11.906Z,5060.00
2017-09-22T07:18:12.348Z,5204.00
2017-09-22T07:19:33.959Z,5292.00
2017-09-22T07:20:13.202Z,5296.00
2017-09-22T07:21:13.638Z,5288.00
2017-09-22T07:22:14.066Z,5260.00
2017-09-22T07:23:14.504Z,5316.00
2017-09-22T07:24:14.935Z,5392.00
2017-09-22T07:25:36.528Z,5456.00
2017-09-22T07:26:15.804Z,5640.00
2017-09-22T07:27:16.249Z,5756.00
2017-09-22T07:28:16.668Z,5884.00
2017-09-22T07:29:17.098Z,6052.00
2017-09-22T07:30:17.545Z,6336.00
2017-09-22T07:31:39.157Z,6836.00
2017-09-22T07:32:18.398Z,7380.00
2017-09-22T07:33:18.844Z,8088.00
2017-09-22T07:34:19.276Z,8568.00
2017-09-22T07:35:19.703Z,9164.00
2017-09-22T07:36:20.137Z,9556.00
2017-09-22T07:37:41.730Z,10712.00
2017-09-22T07:38:20.996Z,11204.00
2017-09-22T07:39:21.434Z,11704.00
2017-09-22T07:40:21.871Z,11292.00
2017-09-22T07:41:22.321Z,11900.00
2017-09-22T07:42:22.774Z,13540.00
2017-09-22T07:43:44.358Z,12820.00
2017-09-22T07:44:23.610Z,11980.00
2017-09-22T07:45:24.055Z,14276.00
2017-09-22T07:46:24.476Z,13512.00
2017-09-22T07:47:24.931Z,13196.00
2017-09-22T07:48:25.357Z,12792.00
2017-09-22T07:49:46.951Z,21792.00
2017-09-22T07:50:26.216Z,37120.00
2017-09-22T07:51:26.661Z,41536.00
2017-09-22T07:52:27.086Z,41760.00
2017-09-22T07:53:27.524Z,42912.00
2017-09-22T07:54:27.964Z,44416.00
2017-09-22T07:55:49.565Z,45248.00
2017-09-22T07:56:28.838Z,44352.00
2017-09-22T07:57:29.286Z,43616.00
2017-09-22T07:58:29.741Z,42016.00
2017-09-22T07:59:30.165Z,40512.00
2017-09-22T08:00:30.608Z,40576.00
2017-09-22T08:01:52.218Z,41952.00
2017-09-22T08:02:31.504Z,42656.00
2017-09-22T08:03:31.945Z,37536.00
2017-09-22T08:04:32.408Z,40704.00
2017-09-22T08:05:32.841Z,45120.00
2017-09-22T08:06:33.289Z,43936.00
2017-09-22T08:07:54.906Z,41504.00
2017-09-22T08:08:34.190Z,40352.00
2017-09-22T08:09:34.642Z,40448.00
2017-09-22T08:10:35.102Z,42176.00
2017-09-22T08:11:35.534Z,45664.00
2017-09-22T08:12:35.985Z,48224.00
2017-09-22T08:13:57.600Z,49920.00
2017-09-22T08:14:36.891Z,51552.00
2017-09-22T08:15:37.335Z,49376.00
2017-09-22T08:16:37.784Z,45632.00
2017-09-22T08:17:38.256Z,39904.00
2017-09-22T08:18:38.718Z,38816.00
2017-09-22T08:20:00.334Z,46464.00
2017-09-22T08:20:39.600Z,47296.00
2017-09-22T08:21:40.057Z,42240.00
2017-09-22T08:22:40.523Z,28192.00
2017-09-22T08:23:40.967Z,24352.00
2017-09-22T08:24:41.444Z,29824.00
2017-09-22T08:26:03.048Z,27744.00
2017-09-22T08:26:42.323Z,24096.00
2017-09-22T08:27:42.778Z,22080.00
2017-09-22T08:28:43.236Z,21216.00
2017-09-22T08:29:43.697Z,20320.00
2017-09-22T08:30:44.144Z,17984.00
2017-09-22T08:32:05.769Z,15956.00
2017-09-22T08:32:45.046Z,14308.00
2017-09-22T08:33:45.503Z,14132.00
2017-09-22T08:34:45.957Z,14244.00
2017-09-22T08:35:46.397Z,18048.00
2017-09-22T08:36:46.848Z,31104.00
2017-09-22T08:38:08.466Z,55744.00
2017-09-22T08:38:47.748Z,54112.00
2017-09-22T08:39:48.202Z,36800.00
2017-09-22T08:40:48.646Z,48160.00
2017-09-22T08:41:49.101Z,57664.00
2017-09-22T08:42:49.575Z,55360.00
2017-09-22T08:44:11.171Z,41504.00
2017-09-22T08:44:50.449Z,50848.00
2017-09-22T08:45:50.896Z,50784.00
2017-09-22T08:46:51.360Z,41536.00
2017-09-22T08:47:51.808Z,43808.00
2017-09-22T08:48:52.264Z,42464.00
2017-09-22T08:50:13.874Z,45664.00
2017-09-22T08:50:53.158Z,26848.00
2017-09-22T08:51:53.621Z,21248.00
2017-09-22T08:52:54.062Z,15132.00
2017-09-22T08:53:54.515Z,15804.00
2017-09-22T08:54:54.969Z,15744.00
2017-09-22T08:56:16.615Z,16012.00
2017-09-22T08:56:55.866Z,16672.00
2017-09-22T08:57:56.331Z,18048.00
2017-09-22T08:58:56.766Z,42624.00
2017-09-22T08:59:57.217Z,32256.00
2017-09-22T09:00:57.673Z,21376.00
2017-09-22T09:02:19.284Z,32640.00
2017-09-22T09:02:58.566Z,33280.00
2017-09-22T09:03:59.060Z,51232.00
2017-09-22T09:04:59.471Z,51520.00
2017-09-22T09:05:59.924Z,45120.00
2017-09-22T09:07:00.367Z,31904.00
2017-09-22T09:08:21.984Z,67808.00
2017-09-22T09:09:01.266Z,66112.00
2017-09-22T09:10:01.776Z,45824.00
2017-09-22T09:11:02.189Z,52928.00
2017-09-22T09:12:02.681Z,49920.00
2017-09-22T09:13:03.088Z,31040.00
2017-09-22T09:14:24.694Z,34688.00
2017-09-22T09:15:03.980Z,21248.00
2017-09-22T09:16:04.464Z,26208.00
2017-09-22T09:17:04.892Z,16872.00
2017-09-22T09:18:05.350Z,54592.00
2017-09-22T09:19:05.791Z,71744.00
2017-09-22T09:20:27.421Z,13716.00
2017-09-22T09:21:06.704Z,11876.00
2017-09-22T09:22:07.159Z,65536.00
2017-09-22T09:23:07.627Z,55264.00
2017-09-22T09:24:08.063Z,11324.00
2017-09-22T09:25:08.540Z,67040.00
2017-09-22T09:26:30.138Z,69472.00
2017-09-22T09:27:09.423Z,70592.00
2017-09-22T09:28:09.878Z,70880.00
2017-09-22T09:29:10.363Z,73152.00
2017-09-22T09:30:10.782Z,75840.00
2017-09-22T09:31:11.240Z,78464.00
2017-09-22T09:32:32.861Z,79296.00
2017-09-22T09:33:12.145Z,79296.00
2017-09-22T09:34:12.606Z,73248.00
2017-09-22T09:35:13.074Z,28352.00
2017-09-22T09:36:13.531Z,16928.00
2017-09-22T09:37:13.973Z,14840.00
2017-09-22T09:38:35.595Z,15584.00
2017-09-22T09:39:14.883Z,16384.00
2017-09-22T09:40:15.338Z,16608.00
2017-09-22T09:41:15.811Z,13672.00
2017-09-22T09:42:16.266Z,19136.00
2017-09-22T09:43:16.710Z,18272.00
2017-09-22T09:44:38.348Z,56864.00
2017-09-22T09:45:17.629Z,79648.00
2017-09-22T09:46:18.102Z,83456.00
2017-09-22T09:47:18.539Z,18016.00
2017-09-22T09:48:19.019Z,83552.00
2017-09-22T09:49:19.469Z,81440.00
2017-09-22T09:50:41.086Z,80096.00
2017-09-22T09:51:20.373Z,64064.00
2017-09-22T09:52:20.837Z,80576.00
2017-09-22T09:53:21.284Z,80640.00
2017-09-22T09:54:21.749Z,80800.00
2017-09-22T09:55:22.202Z,79232.00
2017-09-22T09:56:43.827Z,72256.00
2017-09-22T09:57:23.121Z,60992.00
2017-09-22T09:58:23.619Z,77536.00
2017-09-22T09:59:24.057Z,46432.00
2017-09-22T10:00:24.500Z,16768.00
2017-09-22T10:01:24.960Z,15180.00
2017-09-22T10:02:46.589Z,22080.00
2017-09-22T10:03:25.875Z,14952.00
2017-09-22T10:04:26.350Z,11636.00
2017-09-22T10:05:26.789Z,31456.00
2017-09-22T10:06:27.250Z,21664.00
2017-09-22T10:07:27.712Z,10384.00
2017-09-22T10:08:49.328Z,8328.00
2017-09-22T10:09:28.624Z,64384.00
2017-09-22T10:10:29.070Z,78304.00
2017-09-22T10:11:29.531Z,76672.00
2017-09-22T10:12:30.000Z,73824.00
2017-09-22T10:13:30.431Z,76832.00
2017-09-22T10:14:52.068Z,14328.00
2017-09-22T10:15:31.345Z,14372.00
2017-09-22T10:16:31.808Z,15328.00
2017-09-22T10:17:32.264Z,82688.00
2017-09-22T10:18:32.699Z,80800.00
2017-09-22T10:19:33.160Z,32032.00
2017-09-22T10:20:54.784Z,19648.00
2017-09-22T10:21:34.093Z,77376.00
2017-09-22T10:22:34.524Z,19072.00
2017-09-22T10:23:34.984Z,13652.00
2017-09-22T10:24:35.443Z,12680.00
2017-09-22T10:25:35.917Z,12528.00
2017-09-22T10:26:57.519Z,14040.00
2017-09-22T10:27:36.805Z,84480.00
2017-09-22T10:28:37.254Z,87072.00
2017-09-22T10:29:37.734Z,87744.00
2017-09-22T10:30:38.164Z,80704.00
2017-09-22T10:31:38.661Z,77312.00
2017-09-22T10:33:00.240Z,70720.00
2017-09-22T10:33:39.519Z,66432.00
2017-09-22T10:34:39.989Z,61888.00
2017-09-22T10:35:40.441Z,50880.00
2017-09-22T10:36:40.899Z,17248.00
2017-09-22T10:37:41.397Z,71776.00
2017-09-22T10:39:02.993Z,17632.00
2017-09-22T10:39:42.281Z,17728.00
2017-09-22T10:40:42.732Z,70112.00
2017-09-22T10:41:43.197Z,42112.00
2017-09-22T10:42:43.656Z,80640.00
2017-09-22T10:43:44.119Z,78272.00
2017-09-22T10:45:05.735Z,69376.00
2017-09-22T10:45:45.020Z,13356.00
2017-09-22T10:46:45.518Z,11224.00
2017-09-22T10:47:45.949Z,44256.00
2017-09-22T10:48:46.388Z,60768.00
2017-09-22T10:49:46.868Z,63584.00
2017-09-22T10:51:08.504Z,68064.00
2017-09-22T10:51:47.765Z,71936.00
2017-09-22T10:52:48.227Z,74624.00
2017-09-22T10:53:48.680Z,75232.00
2017-09-22T10:54:49.137Z,76416.00
2017-09-22T10:55:49.597Z,74240.00
2017-09-22T10:57:11.239Z,69664.00
2017-09-22T10:57:50.519Z,67328.00
2017-09-22T10:58:50.974Z,67744.00
2017-09-22T10:59:51.444Z,68000.00
2017-09-22T11:00:51.908Z,65632.00
2017-09-22T11:01:52.356Z,65376.00
2017-09-22T11:03:14.018Z,62432.00
2017-09-22T11:03:53.276Z,27520.00
2017-09-22T11:04:53.741Z,58848.00
2017-09-22T11:05:54.204Z,17184.00
2017-09-22T11:06:54.675Z,22304.00
2017-09-22T11:07:55.126Z,27328.00
2017-09-22T11:09:16.761Z,46464.00
2017-09-22T11:09:56.061Z,50208.00
2017-09-22T11:10:56.509Z,68384.00
2017-09-22T11:11:56.986Z,74848.00
2017-09-22T11:12:57.434Z,75840.00
2017-09-22T11:13:57.897Z,72832.00
2017-09-22T11:15:19.555Z,63200.00
2017-09-22T11:15:58.834Z,67392.00
2017-09-22T11:16:59.305Z,56256.00
2017-09-22T11:17:59.764Z,51328.00
2017-09-22T11:19:00.223Z,49408.00
2017-09-22T11:20:00.671Z,56640.00
2017-09-22T11:21:22.319Z,49728.00
2017-09-22T11:22:01.617Z,48736.00
2017-09-22T11:23:02.065Z,65600.00
2017-09-22T11:24:02.525Z,57472.00
2017-09-22T11:25:02.989Z,60128.00
2017-09-22T11:26:03.502Z,57024.00
2017-09-22T11:27:25.093Z,69152.00
2017-09-22T11:28:04.388Z,58624.00
2017-09-22T11:29:04.866Z,61568.00
2017-09-22T11:30:05.324Z,11488.00
2017-09-22T11:31:05.784Z,8160.00
2017-09-22T11:32:06.275Z,35200.00
2017-09-22T11:33:27.879Z,7004.00
2017-09-22T11:34:07.174Z,5488.00
2017-09-22T11:35:07.627Z,5180.00
2017-09-22T11:36:08.122Z,5140.00
2017-09-22T11:37:08.596Z,5340.00
2017-09-22T11:38:09.015Z,5136.00
2017-09-22T11:39:30.643Z,4968.00
2017-09-22T11:40:09.934Z,4740.00
2017-09-22T11:41:10.397Z,4600.00
2017-09-22T11:42:10.847Z,4608.00
2017-09-22T11:43:11.296Z,5528.00
2017-09-22T11:44:11.750Z,7320.00
2017-09-22T11:45:33.392Z,7336.00
2017-09-22T11:46:12.662Z,7384.00
2017-09-22T11:47:13.117Z,7372.00
2017-09-22T11:48:13.555Z,7336.00
2017-09-22T11:49:14.007Z,7108.00
2017-09-22T11:50:14.462Z,7252.00
2017-09-22T11:51:36.092Z,7664.00
2017-09-22T11:52:15.353Z,8244.00
2017-09-22T11:53:15.813Z,8692.00
2017-09-22T11:54:16.290Z,8864.00
2017-09-22T11:55:16.696Z,7564.00
2017-09-22T11:56:17.144Z,6492.00
2017-09-22T11:57:38.755Z,6024.00
2017-09-22T11:58:18.053Z,5788.00
2017-09-22T11:59:18.481Z,5724.00
2017-09-22T12:00:18.923Z,6236.00
2017-09-22T12:01:19.380Z,6232.00
2017-09-22T12:02:19.814Z,7160.00
2017-09-22T12:03:41.425Z,7540.00
2017-09-22T12:04:20.841Z,7488.00
2017-09-22T12:05:21.148Z,6844.00
2017-09-22T12:06:21.591Z,6384.00
2017-09-22T12:07:22.036Z,6036.00
2017-09-22T12:08:22.495Z,6168.00
2017-09-22T12:09:44.085Z,7140.00
2017-09-22T12:10:23.355Z,7864.00
2017-09-22T12:11:23.798Z,8072.00
2017-09-22T12:12:24.247Z,8180.00
2017-09-22T12:13:24.705Z,8116.00
2017-09-22T12:14:25.123Z,8632.00
2017-09-22T12:15:46.735Z,9056.00
2017-09-22T12:16:26.009Z,9284.00
2017-09-22T12:17:26.467Z,9660.00
2017-09-22T12:18:26.916Z,9956.00
2017-09-22T12:19:27.340Z,10360.00
2017-09-22T12:20:27.777Z,10248.00
2017-09-22T12:21:49.379Z,10084.00
2017-09-22T12:22:28.656Z,9584.00
2017-09-22T12:23:29.111Z,9356.00
2017-09-22T12:24:29.538Z,8700.00
2017-09-22T12:25:29.994Z,7964.00
2017-09-22T12:26:30.421Z,7388.00
2017-09-22T12:27:52.030Z,6592.00
2017-09-22T12:28:31.317Z,5980.00
2017-09-22T12:29:31.746Z,5824.00
2017-09-22T12:30:32.196Z,6016.00